Time;durP1;ratioP1;P1;durP2;ratioP2;P2;SDS_P1;SDS_P2;PMS_P1;PMS_P2;Temp;Humidity;BMP_temperature;BMP_pressure;BME280_temperature;BME280_humidity;BME280_pressure;Samples;Min_cycle;Max_cycle;Signal;HPM_P1;HPM_P2
2022/12/12 00:01:51;;;;;;;1.15;1.05;;;19.40;35.80;;;;;;5029145;28;20060;-62
2022/12/12 00:04:18;;;;;;;1.35;1.25;;;19.40;35.80;;;;;;5030691;28;20080;-62
2022/12/12 00:06:45;;;;;;;0.75;0.75;;;19.40;35.80;;;;;;5030498;28;20052;-62
2022/12/12 00:09:12;;;;;;;1.10;1.00;;;19.30;35.80;;;;;;5030320;28;20051;-62
2022/12/12 00:11:39;;;;;;;1.23;1.17;;;19.30;35.80;;;;;;5027161;28;20049;-62
2022/12/12 00:14:07;;;;;;;1.00;0.90;;;19.30;35.80;;;;;;5030595;28;20045;-62
2022/12/12 00:16:34;;;;;;;1.55;1.00;;;19.40;35.90;;;;;;5029694;28;20080;-62
2022/12/12 00:19:01;;;;;;;1.38;0.88;;;19.30;35.80;;;;;;5030102;28;20064;-62
2022/12/12 00:21:29;;;;;;;1.10;1.02;;;19.30;35.80;;;;;;5030410;28;20056;-62
2022/12/12 00:23:56;;;;;;;1.00;0.90;;;19.30;35.90;;;;;;5029483;28;20045;-61
2022/12/12 00:26:27;;;;;;;1.77;0.90;;;19.30;35.80;;;;;;5029268;28;20045;-62
2022/12/12 00:28:55;;;;;;;1.23;1.13;;;19.30;35.80;;;;;;5029082;28;20529;-61
2022/12/12 00:31:22;;;;;;;1.30;1.20;;;19.30;35.90;;;;;;5030256;28;20061;-62
2022/12/12 00:33:50;;;;;;;1.33;1.10;;;19.30;35.90;;;;;;5029987;28;20103;-62
2022/12/12 00:36:19;;;;;;;1.13;1.02;;;19.30;35.90;;;;;;5029528;28;20061;-62
2022/12/12 00:38:47;;;;;;;1.00;1.00;;;19.30;35.90;;;;;;5028712;28;20504;-62
2022/12/12 00:41:14;;;;;;;0.90;0.90;;;19.30;35.90;;;;;;5026740;28;20050;-62
2022/12/12 00:43:42;;;;;;;1.50;1.38;;;19.30;35.90;;;;;;5026038;28;20046;-62
2022/12/12 00:46:16;;;;;;;1.08;0.98;;;19.30;35.90;;;;;;5029565;28;20041;-62
2022/12/12 00:48:44;;;;;;;1.52;1.02;;;19.30;35.90;;;;;;5029834;28;20456;-62
2022/12/12 00:51:15;;;;;;;1.27;1.17;;;19.30;35.90;;;;;;5028743;28;20049;-62
2022/12/12 00:53:43;;;;;;;0.95;0.95;;;19.30;35.90;;;;;;5028077;28;20441;-62
2022/12/12 00:56:10;;;;;;;0.90;0.90;;;19.30;35.90;;;;;;5029772;28;20049;-62
2022/12/12 00:58:37;;;;;;;1.00;0.90;;;19.30;36.00;;;;;;5029412;28;20057;-62
2022/12/12 01:01:15;;;;;;;1.05;0.93;;;19.30;36.00;;;;;;5027904;28;20060;-62
2022/12/12 01:03:43;;;;;;;1.05;0.95;;;19.30;36.00;;;;;;5028358;28;20060;-62
2022/12/12 01:06:11;;;;;;;1.48;1.05;;;19.30;36.00;;;;;;5028867;28;20379;-62
2022/12/12 01:08:39;;;;;;;0.75;0.75;;;19.30;36.00;;;;;;5029361;28;20057;-62
2022/12/12 01:11:08;;;;;;;0.80;0.80;;;19.30;36.00;;;;;;5029551;28;20045;-62
2022/12/12 01:13:35;;;;;;;1.00;1.00;;;19.40;36.00;;;;;;5027107;28;20057;-62
2022/12/12 01:16:04;;;;;;;1.27;1.08;;;19.30;36.00;;;;;;5026057;28;20042;-62
2022/12/12 01:18:31;;;;;;;0.95;0.95;;;19.40;36.00;;;;;;5028133;28;20073;-62
2022/12/12 01:20:58;;;;;;;0.88;0.80;;;19.30;36.00;;;;;;5029120;28;20042;-62
2022/12/12 01:23:27;;;;;;;0.93;0.88;;;19.40;36.10;;;;;;5029612;28;20375;-62
2022/12/12 01:26:02;;;;;;;1.00;1.00;;;19.30;36.00;;;;;;5028374;28;20045;-62
2022/12/12 01:28:30;;;;;;;1.25;1.10;;;19.30;36.00;;;;;;5028749;28;20059;-62
2022/12/12 01:30:57;;;;;;;0.85;0.85;;;19.40;36.00;;;;;;5028042;28;20052;-62
2022/12/12 01:33:24;;;;;;;0.98;0.90;;;19.30;36.00;;;;;;5029012;28;20049;-62
2022/12/12 01:35:51;;;;;;;1.23;1.13;;;19.30;36.00;;;;;;5028524;28;20064;-62
2022/12/12 01:38:18;;;;;;;0.90;0.90;;;19.30;36.00;;;;;;5029162;28;20422;-62
2022/12/12 01:40:46;;;;;;;1.35;1.25;;;19.30;36.00;;;;;;5028404;28;20405;-62
2022/12/12 01:43:16;;;;;;;1.13;1.02;;;19.30;36.00;;;;;;5028328;28;20497;-62
2022/12/12 01:46:23;;;;;;;1.35;1.23;;;19.30;36.00;;;;;;5026875;28;20045;-62
2022/12/12 01:48:59;;;;;;;1.20;1.00;;;19.30;36.00;;;;;;5027523;28;20057;-62
2022/12/12 01:51:27;;;;;;;1.17;1.08;;;19.30;36.00;;;;;;5028627;28;20042;-62
2022/12/12 01:54:05;;;;;;;0.75;0.75;;;19.30;36.00;;;;;;5028612;28;20056;-62
2022/12/12 01:56:33;;;;;;;0.80;0.80;;;19.30;36.00;;;;;;5027380;28;20050;-62
2022/12/12 01:59:03;;;;;;;0.95;0.93;;;19.30;36.00;;;;;;5028634;28;20049;-62
2022/12/12 02:01:31;;;;;;;0.77;0.70;;;19.30;36.10;;;;;;5027434;28;20049;-62
2022/12/12 02:04:00;;;;;;;0.80;0.80;;;19.30;36.10;;;;;;5027669;28;20053;-62
2022/12/12 02:06:28;;;;;;;1.00;0.95;;;19.30;36.10;;;;;;5027641;28;20063;-62
2022/12/12 02:08:59;;;;;;;0.90;0.90;;;19.30;36.10;;;;;;5028451;28;20097;-62
2022/12/12 02:11:28;;;;;;;1.15;1.00;;;19.30;36.10;;;;;;5027889;28;20045;-62
2022/12/12 02:13:57;;;;;;;1.00;1.00;;;19.30;36.10;;;;;;5028341;28;20049;-62
2022/12/12 02:16:50;;;;;;;0.77;0.77;;;19.30;36.10;;;;;;5028943;28;20060;-62
2022/12/12 02:19:57;;;;;;;1.40;1.05;;;19.30;36.10;;;;;;5023460;28;20236;-62
2022/12/12 02:23:02;;;;;;;1.17;0.98;;;19.30;36.10;;;;;;5027254;28;20437;-62
2022/12/12 02:26:07;;;;;;;1.17;1.08;;;19.30;36.10;;;;;;5027068;28;20296;-62
2022/12/12 02:29:14;;;;;;;1.10;1.00;;;19.30;36.10;;;;;;5028298;28;20067;-62
2022/12/12 02:31:58;;;;;;;1.05;0.88;;;19.30;36.10;;;;;;5027010;28;20042;-62
2022/12/12 02:34:52;;;;;;;0.90;0.90;;;19.30;36.10;;;;;;5028454;28;20060;-62
2022/12/12 02:37:37;;;;;;;0.70;0.70;;;19.30;36.10;;;;;;5027368;28;20045;-62
2022/12/12 02:40:28;;;;;;;0.98;0.90;;;19.30;36.20;;;;;;5028014;28;20041;-61
2022/12/12 02:43:19;;;;;;;1.83;0.90;;;19.30;36.10;;;;;;5026564;28;20053;-62
2022/12/12 02:45:57;;;;;;;1.15;1.05;;;19.30;36.20;;;;;;5028190;28;20049;-62
2022/12/12 02:48:40;;;;;;;0.98;0.88;;;19.30;36.20;;;;;;5028121;28;20452;-62
2022/12/12 02:51:10;;;;;;;0.90;0.90;;;19.30;36.20;;;;;;5023015;28;20532;-62
2022/12/12 02:53:37;;;;;;;0.90;0.88;;;19.30;36.20;;;;;;5026582;28;20045;-62
2022/12/12 02:56:08;;;;;;;0.80;0.80;;;19.30;36.20;;;;;;5027398;28;20053;-62
2022/12/12 02:58:36;;;;;;;;;;;19.20;36.10;;;;;;5029039;28;20402;-62
2022/12/12 03:01:19;;;;;;;0.80;0.80;;;19.20;36.10;;;;;;5025791;28;19932;-61
2022/12/12 03:10:08;;;;;;;0.70;0.70;;;19.20;36.20;;;;;;5031259;28;20516;-62
2022/12/12 03:12:47;;;;;;;1.00;0.90;;;19.20;36.20;;;;;;5031588;28;20045;-62
2022/12/12 03:15:25;;;;;;;1.30;1.00;;;19.20;36.20;;;;;;5031228;28;20489;-61
2022/12/12 03:18:03;;;;;;;1.55;1.20;;;19.20;36.20;;;;;;5031767;28;20204;-62
2022/12/12 03:21:01;;;;;;;0.98;0.95;;;19.20;36.20;;;;;;5029846;28;20049;-62
2022/12/12 03:23:35;;;;;;;1.05;1.02;;;19.20;36.30;;;;;;5027069;28;20414;-63
2022/12/12 03:26:18;;;;;;;0.80;0.80;;;19.20;36.20;;;;;;5031308;28;20053;-62
2022/12/12 03:29:01;;;;;;;0.70;0.70;;;19.20;36.30;;;;;;5030763;28;20501;-62
2022/12/12 03:31:32;;;;;;;0.70;0.70;;;19.30;36.30;;;;;;5031170;28;20056;-61
2022/12/12 03:34:09;;;;;;;1.00;1.00;;;19.20;36.30;;;;;;5030935;28;20144;-62
2022/12/12 03:36:53;;;;;;;1.10;1.00;;;19.30;36.30;;;;;;5031499;28;20046;-62
2022/12/12 03:39:33;;;;;;;0.73;0.73;;;19.30;36.30;;;;;;5029549;28;20053;-62
2022/12/12 03:42:14;;;;;;;;;;;19.30;36.30;;;;;;5031533;28;20049;-62
2022/12/12 03:44:50;;;;;;;1.15;1.08;;;19.30;36.30;;;;;;5031210;28;19925;-62
2022/12/12 03:47:24;;;;;;;0.85;0.85;;;19.30;36.30;;;;;;5030900;28;20056;-62
2022/12/12 03:49:57;;;;;;;0.77;0.77;;;19.30;36.20;;;;;;5031138;28;20485;-62
2022/12/12 03:52:37;;;;;;;0.82;0.82;;;19.20;36.20;;;;;;5030915;28;20053;-62
2022/12/12 03:55:25;;;;;;;1.08;1.00;;;19.20;36.20;;;;;;5024503;28;20223;-62
2022/12/12 03:58:06;;;;;;;0.88;0.88;;;19.30;36.30;;;;;;5030575;28;20049;-62
2022/12/12 04:00:36;;;;;;;;;;;19.30;36.30;;;;;;5031039;28;20056;-61
2022/12/12 04:03:42;;;;;;;0.82;0.82;;;19.20;36.20;;;;;;5030463;28;19920;-62
2022/12/12 04:06:25;;;;;;;0.80;0.80;;;19.20;36.30;;;;;;5030329;28;20049;-62
2022/12/12 04:15:45;;;;;;;0.73;0.70;;;19.20;36.30;;;;;;5030413;28;20461;-62
2022/12/12 04:18:25;;;;;;;0.80;0.80;;;19.20;36.30;;;;;;5028979;28;20041;-62
2022/12/12 04:24:16;;;;;;;0.80;0.75;;;19.20;36.30;;;;;;5030113;28;20042;-61
2022/12/12 04:27:03;;;;;;;0.77;0.77;;;19.20;36.30;;;;;;5025685;28;20041;-62
2022/12/12 04:29:53;;;;;;;0.93;0.85;;;19.20;36.30;;;;;;5030262;28;20053;-61
2022/12/12 04:32:46;;;;;;;1.67;1.08;;;19.20;36.30;;;;;;5028983;28;20042;-62
2022/12/12 04:35:18;;;;;;;1.00;1.00;;;19.20;36.30;;;;;;5030024;28;20050;-62
2022/12/12 04:37:55;;;;;;;0.90;0.90;;;19.20;36.90;;;;;;5029586;28;20130;-62
2022/12/12 04:40:34;;;;;;;1.08;1.00;;;19.20;36.30;;;;;;5029531;28;20053;-62
2022/12/12 04:43:10;;;;;;;0.82;0.82;;;19.20;36.30;;;;;;5028271;28;20061;-62
2022/12/12 04:45:55;;;;;;;0.98;0.98;;;19.20;36.30;;;;;;5029638;28;20055;-62
2022/12/12 04:48:40;;;;;;;1.10;1.00;;;19.20;36.30;;;;;;5030108;28;20068;-62
2022/12/12 04:51:13;;;;;;;1.02;1.00;;;19.20;36.40;;;;;;5029153;28;20045;-62
2022/12/12 04:53:47;;;;;;;0.98;0.98;;;19.20;36.40;;;;;;5029705;28;20072;-62
2022/12/12 04:56:17;;;;;;;0.90;0.90;;;19.20;36.40;;;;;;5029022;28;20060;-62
2022/12/12 04:58:45;;;;;;;1.20;1.00;;;19.20;36.40;;;;;;5019803;28;20049;-63
2022/12/12 05:01:29;;;;;;;1.10;1.00;;;19.20;36.40;;;;;;5010137;28;20038;-62
2022/12/12 05:04:07;;;;;;;1.15;1.05;;;19.20;36.40;;;;;;5009736;28;20438;-62
2022/12/12 05:06:42;;;;;;;3.05;1.20;;;19.20;36.40;;;;;;5025828;28;20060;-61
2022/12/12 05:09:10;;;;;;;1.38;1.08;;;19.20;36.40;;;;;;5029462;28;20057;-61
2022/12/12 05:11:37;;;;;;;0.95;0.95;;;19.20;36.40;;;;;;5029085;28;20057;-61
2022/12/12 05:14:08;;;;;;;0.80;0.80;;;19.20;36.40;;;;;;5029367;28;20049;-61
2022/12/12 05:16:41;;;;;;;;;;;19.20;36.40;;;;;;5022551;28;20037;-61
2022/12/12 05:19:08;;;;;;;1.10;1.00;;;19.20;36.40;;;;;;5020526;28;19964;-61
2022/12/12 05:21:35;;;;;;;0.90;0.90;;;19.20;36.40;;;;;;5028629;28;20056;-62
2022/12/12 05:24:02;;;;;;;1.38;1.10;;;19.10;36.30;;;;;;5029297;28;20387;-62
2022/12/12 05:26:31;;;;;;;1.13;1.10;;;19.20;36.40;;;;;;5028749;28;20053;-62
2022/12/12 05:28:59;;;;;;;1.40;1.30;;;19.20;36.40;;;;;;5025933;28;20057;-62
2022/12/12 05:31:33;;;;;;;1.23;1.13;;;19.10;36.30;;;;;;5025389;28;20449;-62
2022/12/12 05:34:00;;;;;;;1.27;1.20;;;19.20;36.40;;;;;;5026325;28;20042;-62
2022/12/12 05:36:27;;;;;;;2.13;1.60;;;19.20;36.40;;;;;;5023977;28;20045;-62
2022/12/12 05:38:54;;;;;;;1.50;1.40;;;19.10;36.10;;;;;;5023933;28;20065;-62
2022/12/12 05:41:21;;;;;;;1.70;1.60;;;19.10;35.90;;;;;;5027952;28;20498;-62
2022/12/12 05:43:48;;;;;;;2.28;1.83;;;19.10;35.80;;;;;;5027954;28;20053;-62
2022/12/12 05:46:15;;;;;;;1.27;1.17;;;19.10;35.90;;;;;;5031426;28;20512;-62
2022/12/12 05:48:43;;;;;;;1.83;1.60;;;19.10;36.40;;;;;;5027207;28;20096;-62
2022/12/12 05:51:10;;;;;;;2.03;1.83;;;19.10;35.90;;;;;;5028507;28;20052;-62
2022/12/12 05:53:37;;;;;;;2.17;1.98;;;19.10;35.80;;;;;;5026806;28;20214;-62
2022/12/12 05:56:10;;;;;;;1.77;1.67;;;19.10;35.80;;;;;;5026477;28;20050;-62
2022/12/12 05:58:38;;;;;;;1.75;1.50;;;19.10;35.70;;;;;;5025154;28;20494;-62
2022/12/12 06:01:06;;;;;;;1.60;1.50;;;19.10;35.70;;;;;;5027763;28;20041;-62
2022/12/12 06:03:33;;;;;;;1.58;1.48;;;19.10;35.60;;;;;;5021731;28;20144;-62
2022/12/12 06:06:00;;;;;;;2.03;1.83;;;19.20;35.60;;;;;;5027392;28;20054;-62
2022/12/12 06:08:28;;;;;;;2.25;1.60;;;19.20;35.50;;;;;;5016394;28;20049;-62
2022/12/12 06:10:55;;;;;;;2.67;2.40;;;19.20;35.50;;;;;;5018077;28;20042;-64
2022/12/12 06:13:22;;;;;;;1.73;1.63;;;19.20;35.40;;;;;;5012576;28;20077;-62
2022/12/12 06:15:49;;;;;;;1.80;1.70;;;19.20;35.30;;;;;;5021071;28;20512;-61
2022/12/12 06:18:16;;;;;;;1.63;1.52;;;19.20;35.20;;;;;;5025366;28;20426;-61
2022/12/12 06:20:43;;;;;;;2.47;2.13;;;19.30;35.30;;;;;;5026184;28;20533;-61
2022/12/12 06:23:10;;;;;;;2.25;1.90;;;19.30;35.30;;;;;;5029415;28;20562;-59
2022/12/12 06:25:37;;;;;;;2.00;1.70;;;19.30;35.20;;;;;;5022100;28;21107;-59
2022/12/12 06:28:04;;;;;;;2.20;1.95;;;19.40;35.10;;;;;;5020607;28;20056;-60
2022/12/12 06:30:32;;;;;;;2.83;2.35;;;19.50;35.00;;;;;;5020221;28;20048;-61
2022/12/12 06:32:59;;;;;;;4.88;2.10;;;19.50;35.00;;;;;;5020113;28;20060;-61
2022/12/12 06:35:26;;;;;;;5.95;2.10;;;19.60;35.30;;;;;;5017575;28;20429;-60
2022/12/12 06:37:53;;;;;;;8.55;2.70;;;19.60;35.10;;;;;;5019395;28;20045;-60
2022/12/12 06:40:21;;;;;;;5.55;2.60;;;19.60;35.00;;;;;;5021084;28;20132;-61
2022/12/12 06:42:48;;;;;;;3.58;2.33;;;19.70;35.00;;;;;;5021461;28;20417;-60
2022/12/12 06:45:16;;;;;;;1.98;1.88;;;19.70;35.00;;;;;;5021455;28;20422;-60
2022/12/12 06:47:43;;;;;;;4.65;2.15;;;19.70;35.00;;;;;;5023353;28;20630;-60
2022/12/12 06:50:12;;;;;;;5.38;2.42;;;19.80;35.00;;;;;;5026871;28;20049;-61
2022/12/12 06:52:42;;;;;;;7.25;2.58;;;19.80;35.30;;;;;;5024075;28;20053;-61
2022/12/12 06:55:09;;;;;;;5.35;2.47;;;19.80;35.20;;;;;;5019205;28;20057;-61
2022/12/12 06:57:37;;;;;;;2.97;2.30;;;19.90;35.10;;;;;;5016583;28;20421;-59
2022/12/12 07:00:05;;;;;;;5.20;2.70;;;19.90;34.90;;;;;;5019225;28;20525;-59
2022/12/12 07:02:32;;;;;;;4.82;3.03;;;19.90;35.20;;;;;;5021212;28;20049;-61
2022/12/12 07:04:59;;;;;;;3.50;2.40;;;20.00;35.70;;;;;;5020534;28;20057;-60
2022/12/12 07:07:26;;;;;;;5.55;2.40;;;20.00;35.90;;;;;;5013029;28;20065;-59
2022/12/12 07:09:54;;;;;;;3.75;2.50;;;20.10;36.00;;;;;;5019131;28;20533;-62
2022/12/12 07:12:21;;;;;;;4.18;2.33;;;20.10;36.00;;;;;;5020967;28;20552;-60
2022/12/12 07:14:48;;;;;;;5.53;2.58;;;20.20;36.10;;;;;;5021803;28;20453;-59
2022/12/12 07:17:17;;;;;;;7.45;3.10;;;20.30;36.10;;;;;;5024598;28;20065;-60
2022/12/12 07:19:44;;;;;;;4.93;3.13;;;20.30;36.10;;;;;;5019910;28;20051;-61
2022/12/12 07:22:11;;;;;;;3.03;2.50;;;20.30;36.10;;;;;;5021916;28;20068;-61
2022/12/12 07:24:38;;;;;;;3.85;2.63;;;20.30;36.10;;;;;;5019460;28;20164;-61
2022/12/12 07:27:06;;;;;;;4.20;2.60;;;20.40;36.10;;;;;;5017633;28;20041;-61
2022/12/12 07:29:34;;;;;;;4.53;3.42;;;20.40;36.00;;;;;;5017973;28;20049;-60
2022/12/12 07:32:02;;;;;;;4.30;3.05;;;20.50;35.90;;;;;;5018057;28;20394;-61
2022/12/12 07:34:31;;;;;;;5.30;3.30;;;20.50;35.90;;;;;;5018946;28;20049;-59
2022/12/12 07:36:58;;;;;;;7.13;2.70;;;20.50;35.90;;;;;;5025597;28;20409;-60
2022/12/12 07:39:30;;;;;;;8.10;3.00;;;20.60;35.80;;;;;;5016946;28;20406;-60
2022/12/12 07:41:58;;;;;;;5.45;3.53;;;20.70;35.80;;;;;;5018184;28;20164;-60
2022/12/12 07:44:25;;;;;;;4.90;3.58;;;20.70;35.80;;;;;;5018590;28;20512;-61
2022/12/12 07:46:52;;;;;;;4.85;3.60;;;20.70;35.90;;;;;;5022748;28;20054;-60
2022/12/12 07:49:19;;;;;;;6.50;3.80;;;20.80;36.10;;;;;;5023574;28;20132;-59
2022/12/12 07:51:46;;;;;;;6.10;3.33;;;20.90;36.10;;;;;;5024807;28;20418;-58
2022/12/12 07:54:15;;;;;;;6.80;3.47;;;20.90;35.90;;;;;;5019889;28;20045;-59
2022/12/12 07:56:42;;;;;;;4.95;3.55;;;21.00;35.60;;;;;;5022657;28;20557;-60
2022/12/12 07:59:10;;;;;;;5.15;3.13;;;21.10;35.50;;;;;;5022289;28;20099;-61
2022/12/12 08:01:38;;;;;;;4.75;3.42;;;21.10;35.30;;;;;;5019306;28;20049;-62
2022/12/12 08:04:05;;;;;;;6.43;3.80;;;21.20;35.30;;;;;;5020396;28;20409;-59
2022/12/12 08:06:33;;;;;;;9.20;3.60;;;21.20;35.20;;;;;;5022895;28;20045;-61
2022/12/12 08:09:00;;;;;;;7.85;4.25;;;21.20;35.00;;;;;;5021235;28;20049;-61
2022/12/12 08:11:27;;;;;;;5.60;4.15;;;21.30;34.90;;;;;;5016157;28;20090;-60
2022/12/12 08:13:55;;;;;;;6.95;3.65;;;21.30;34.60;;;;;;5022922;28;20115;-61
2022/12/12 08:16:27;;;;;;;6.65;3.65;;;21.40;34.60;;;;;;5023587;28;20052;-62
2022/12/12 08:18:58;;;;;;;5.88;3.85;;;21.40;34.70;;;;;;5025064;28;20129;-62
2022/12/12 08:21:26;;;;;;;5.68;4.18;;;21.40;34.70;;;;;;5024559;28;21046;-61
2022/12/12 08:24:01;;;;;;;10.25;3.75;;;21.50;34.60;;;;;;5021937;28;20412;-63
2022/12/12 08:26:29;;;;;;;5.93;3.78;;;21.50;34.60;;;;;;5019917;28;20547;-62
2022/12/12 08:28:57;;;;;;;6.20;3.50;;;21.60;34.70;;;;;;5019094;28;20060;-61
2022/12/12 08:31:25;;;;;;;4.50;3.33;;;21.60;34.90;;;;;;5005655;28;20100;-66
2022/12/12 08:33:53;;;;;;;5.88;3.38;;;21.60;35.00;;;;;;5020484;28;20061;-63
2022/12/12 08:36:28;;;;;;;7.65;2.90;;;21.60;35.10;;;;;;5020355;28;20052;-61
2022/12/12 08:39:07;;;;;;;6.07;3.33;;;21.70;35.20;;;;;;5018661;28;20152;-61
2022/12/12 08:41:38;;;;;;;4.15;3.20;;;21.70;35.10;;;;;;5022587;28;20042;-62
2022/12/12 08:44:06;;;;;;;;;;;21.70;35.00;;;;;;5016832;28;20060;-61
2022/12/12 08:46:34;;;;;;;4.90;3.25;;;21.80;34.90;;;;;;5023159;28;19940;-62
2022/12/12 08:49:01;;;;;;;4.45;2.80;;;21.80;34.80;;;;;;5021561;28;20138;-62
2022/12/12 08:51:28;;;;;;;6.72;3.50;;;21.80;34.70;;;;;;5034350;28;20049;-61
2022/12/12 08:53:55;;;;;;;3.47;3.00;;;21.90;34.70;;;;;;5022453;28;20076;-62
2022/12/12 08:56:24;;;;;;;4.07;3.13;;;21.90;34.60;;;;;;5017178;28;20068;-62
2022/12/12 08:58:51;;;;;;;6.63;3.42;;;21.90;34.50;;;;;;5019744;28;20186;-63
2022/12/12 09:01:21;;;;;;;3.58;3.00;;;21.90;34.30;;;;;;5015620;28;20401;-62
2022/12/12 09:03:50;;;;;;;5.68;3.20;;;22.00;34.40;;;;;;5016756;28;20551;-62
2022/12/12 09:06:17;;;;;;;5.57;3.28;;;22.00;34.30;;;;;;5016166;28;20466;-61
2022/12/12 09:08:45;;;;;;;4.75;3.70;;;22.00;34.30;;;;;;5020524;28;20064;-61
2022/12/12 09:11:12;;;;;;;3.70;2.90;;;22.10;34.30;;;;;;5019190;28;20466;-61
2022/12/12 09:13:40;;;;;;;5.18;3.17;;;22.10;34.30;;;;;;5016547;28;20074;-61
2022/12/12 09:16:07;;;;;;;5.55;3.35;;;22.10;34.10;;;;;;5015942;28;20046;-61
2022/12/12 09:18:37;;;;;;;4.90;3.67;;;22.10;33.90;;;;;;5016883;28;20041;-61
2022/12/12 09:21:10;;;;;;;3.30;2.80;;;22.10;33.80;;;;;;5018204;28;20059;-62
2022/12/12 09:23:37;;;;;;;3.95;2.75;;;22.10;33.60;;;;;;5022092;28;20057;-62
2022/12/12 09:26:06;;;;;;;7.35;3.10;;;22.10;33.60;;;;;;5019526;28;20132;-60
2022/12/12 09:28:33;;;;;;;5.50;2.58;;;22.10;33.40;;;;;;5018438;28;20049;-61
2022/12/12 09:31:04;;;;;;;4.15;2.78;;;22.10;33.30;;;;;;5021255;28;20049;-61
2022/12/12 09:33:32;;;;;;;4.30;2.70;;;22.10;33.20;;;;;;5016947;28;20560;-62
2022/12/12 09:36:02;;;;;;;4.40;3.22;;;22.10;33.60;;;;;;5022052;28;20272;-61
2022/12/12 09:38:29;;;;;;;4.07;2.80;;;22.10;33.00;;;;;;5015057;28;20052;-64
2022/12/12 09:41:03;;;;;;;4.85;2.90;;;22.10;33.00;;;;;;5021203;28;20321;-61
2022/12/12 09:43:43;;;;;;;4.57;3.20;;;22.10;33.10;;;;;;5034290;28;20047;-63
2022/12/12 09:46:21;;;;;;;5.93;2.90;;;22.10;33.10;;;;;;5018925;28;20045;-63
2022/12/12 09:48:48;;;;;;;4.57;3.00;;;22.10;33.00;;;;;;5014928;28;20063;-63
2022/12/12 09:58:57;;;;;;;3.50;3.10;;;22.10;33.00;;;;;;5019426;28;20202;-62
2022/12/12 10:01:38;;;;;;;7.00;3.38;;;22.10;33.00;;;;;;5048297;28;20117;-63
2022/12/12 10:04:30;;;;;;;5.45;2.65;;;22.10;33.00;;;;;;5061700;28;20400;-62
2022/12/12 10:07:13;;;;;;;4.85;2.95;;;22.10;33.00;;;;;;5060603;28;20269;-62
2022/12/12 10:10:20;;;;;;;3.95;3.08;;;22.10;32.90;;;;;;5061696;28;20609;-63
2022/12/12 10:12:48;;;;;;;2.92;2.67;;;22.10;33.00;;;;;;5061055;28;20098;-63
2022/12/12 10:15:37;;;;;;;5.40;2.83;;;22.10;32.90;;;;;;5055977;28;20056;-62
2022/12/12 10:18:13;;;;;;;2.97;2.55;;;22.10;32.90;;;;;;5059331;28;20506;-62
2022/12/12 10:20:47;;;;;;;2.65;2.17;;;22.10;32.80;;;;;;5058828;28;20087;-63
2022/12/12 10:23:46;;;;;;;3.63;2.50;;;22.10;32.80;;;;;;5043703;28;20070;-62
2022/12/12 10:26:22;;;;;;;3.25;2.78;;;22.10;32.70;;;;;;5076939;28;20385;-63
2022/12/12 10:28:58;;;;;;;3.38;2.58;;;22.10;32.70;;;;;;5061617;28;20052;-63
2022/12/12 10:31:47;;;;;;;4.97;2.45;;;22.10;32.60;;;;;;5061189;28;20052;-62
2022/12/12 10:34:46;;;;;;;3.03;2.67;;;22.10;32.60;;;;;;5062576;28;20076;-63
2022/12/12 10:37:30;;;;;;;3.67;3.08;;;22.10;32.60;;;;;;5067225;28;20522;-64
2022/12/12 10:40:20;;;;;;;3.88;2.55;;;22.10;32.50;;;;;;5062824;28;20040;-63
2022/12/12 10:43:12;;;;;;;3.45;2.53;;;22.10;32.60;;;;;;5064556;28;20055;-63
2022/12/12 10:46:13;;;;;;;3.30;2.40;;;22.20;32.60;;;;;;5065061;28;20048;-63
2022/12/12 10:48:41;;;;;;;3.80;3.00;;;22.20;32.50;;;;;;5066421;28;20036;-63
2022/12/12 10:51:12;;;;;;;3.17;2.47;;;22.20;32.60;;;;;;5065901;28;20070;-62
2022/12/12 10:53:41;;;;;;;4.65;2.50;;;22.20;32.50;;;;;;5058982;28;20041;-61
2022/12/12 10:56:12;;;;;;;2.28;2.05;;;22.20;32.40;;;;;;5055904;28;20409;-62
2022/12/12 10:58:41;;;;;;;6.78;2.38;;;22.30;32.70;;;;;;5060274;28;20051;-64
2022/12/12 11:01:20;;;;;;;3.67;2.47;;;22.30;32.80;;;;;;5068067;28;20047;-62
2022/12/12 11:04:07;;;;;;;4.28;2.40;;;22.40;32.90;;;;;;5059918;28;20056;-62
2022/12/12 11:06:44;;;;;;;2.55;2.15;;;22.40;32.60;;;;;;5064689;28;20040;-62
2022/12/12 11:09:21;;;;;;;5.10;2.45;;;22.50;32.60;;;;;;5063576;28;20110;-61
2022/12/12 11:12:12;;;;;;;1.85;1.73;;;22.50;32.40;;;;;;5060453;28;20055;-62
2022/12/12 11:14:48;;;;;;;3.05;2.05;;;22.50;32.30;;;;;;5060704;28;20402;-61
2022/12/12 11:17:28;;;;;;;4.88;2.33;;;22.50;32.20;;;;;;5062600;28;20631;-63
2022/12/12 11:19:58;;;;;;;4.00;3.20;;;22.60;32.20;;;;;;5065599;28;20484;-62
2022/12/12 11:22:30;;;;;;;2.47;2.13;;;22.60;32.10;;;;;;5064906;28;20045;-62
2022/12/12 11:24:57;;;;;;;4.68;2.15;;;22.60;32.00;;;;;;5051259;28;21482;-64
2022/12/12 11:27:38;;;;;;;4.55;2.55;;;22.60;31.90;;;;;;5055146;28;20485;-64
2022/12/12 11:30:29;;;;;;;2.70;2.33;;;22.60;31.90;;;;;;5063234;28;20048;-64
2022/12/12 11:32:58;;;;;;;2.40;2.03;;;22.60;32.50;;;;;;5047531;28;20052;-64
2022/12/12 11:35:32;;;;;;;1.67;1.58;;;22.60;32.00;;;;;;5067793;28;20416;-63
2022/12/12 11:38:16;;;;;;;5.07;2.10;;;22.60;32.10;;;;;;5062594;28;20060;-63
2022/12/12 11:40:43;;;;;;;2.50;2.10;;;22.60;32.10;;;;;;5029629;28;20040;-63
2022/12/12 11:43:27;;;;;;;2.33;2.13;;;22.60;32.10;;;;;;5062163;28;20052;-63
2022/12/12 11:46:16;;;;;;;2.35;2.00;;;22.60;32.10;;;;;;5063098;28;20048;-62
2022/12/12 11:49:00;;;;;;;3.28;2.15;;;22.60;32.20;;;;;;5061215;28;20049;-64
2022/12/12 11:51:36;;;;;;;2.13;1.95;;;22.50;32.10;;;;;;5045297;28;20455;-62
2022/12/12 11:54:11;;;;;;;2.05;1.80;;;22.50;32.20;;;;;;5060573;28;20080;-63
2022/12/12 11:56:51;;;;;;;4.93;2.00;;;22.50;32.00;;;;;;5055986;28;20595;-62
2022/12/12 11:59:47;;;;;;;3.17;1.98;;;22.50;32.20;;;;;;5072338;28;20045;-62
2022/12/12 12:02:53;;;;;;;3.25;2.17;;;22.60;32.10;;;;;;5046580;28;20136;-61
2022/12/12 12:05:30;;;;;;;2.22;2.03;;;22.60;32.00;;;;;;5062111;28;20068;-61
2022/12/12 12:08:33;;;;;;;2.58;1.65;;;22.60;32.00;;;;;;5062551;28;20480;-63
2022/12/12 12:11:28;;;;;;;1.75;1.65;;;22.60;32.00;;;;;;5061494;28;20139;-62
2022/12/12 12:14:26;;;;;;;4.57;2.20;;;22.60;32.10;;;;;;5046230;28;20059;-61
2022/12/12 12:17:04;;;;;;;2.70;2.30;;;22.60;32.10;;;;;;5056070;28;20059;-62
2022/12/12 12:19:58;;;;;;;3.40;1.80;;;22.70;32.00;;;;;;5061951;28;20119;-63
2022/12/12 12:22:51;;;;;;;3.30;2.13;;;22.60;32.00;;;;;;5066127;28;20451;-63
2022/12/12 12:25:57;;;;;;;2.00;1.80;;;22.60;32.10;;;;;;5062354;28;20063;-62
2022/12/12 12:28:57;;;;;;;3.33;1.50;;;22.70;32.10;;;;;;5055131;28;20051;-62
2022/12/12 12:31:46;;;;;;;2.00;1.55;;;22.70;32.60;;;;;;5067137;28;20076;-64
2022/12/12 12:34:53;;;;;;;3.15;1.88;;;22.70;32.10;;;;;;5058041;28;20049;-62
2022/12/12 12:37:49;;;;;;;1.70;1.60;;;22.70;32.00;;;;;;5061399;28;20052;-63
2022/12/12 12:40:48;;;;;;;2.72;2.03;;;22.70;32.00;;;;;;5064816;28;20036;-62
2022/12/12 12:43:40;;;;;;;1.80;1.70;;;22.70;32.00;;;;;;5063394;28;20044;-62
2022/12/12 12:46:20;;;;;;;1.90;1.77;;;22.70;32.00;;;;;;5076625;28;20048;-63
2022/12/12 12:48:52;;;;;;;2.38;2.17;;;22.70;32.00;;;;;;5063845;28;20036;-61
2022/12/12 12:51:38;;;;;;;3.65;2.13;;;22.70;32.00;;;;;;5065190;28;20482;-67
2022/12/12 12:54:21;;;;;;;1.77;1.67;;;22.70;32.00;;;;;;5036571;28;20048;-62
2022/12/12 12:56:55;;;;;;;1.73;1.63;;;22.70;32.00;;;;;;5047698;28;20068;-62
2022/12/12 12:59:28;;;;;;;9.60;2.40;;;22.70;32.00;;;;;;5065355;28;20044;-61
2022/12/12 13:02:00;;;;;;;1.65;1.55;;;22.70;32.10;;;;;;5041526;28;20048;-61
2022/12/12 13:04:35;;;;;;;1.70;1.60;;;22.70;32.40;;;;;;5062897;28;20052;-61
2022/12/12 13:07:15;;;;;;;4.25;1.63;;;22.70;32.60;;;;;;5064548;28;20139;-61
2022/12/12 13:10:00;;;;;;;1.90;1.80;;;22.70;33.10;;;;;;5066258;28;20040;-63
2022/12/12 13:12:42;;;;;;;1.70;1.60;;;22.80;32.60;;;;;;5062746;28;20075;-63
2022/12/12 13:15:27;;;;;;;1.77;1.67;;;22.70;32.60;;;;;;5059388;28;20102;-61
2022/12/12 13:18:03;;;;;;;2.47;1.60;;;22.70;32.60;;;;;;5062756;28;20582;-63
2022/12/12 13:20:41;;;;;;;4.00;1.50;;;22.80;32.60;;;;;;5048459;28;20064;-62
2022/12/12 13:23:36;;;;;;;3.65;1.88;;;22.70;32.70;;;;;;5064659;28;20488;-62
2022/12/12 13:26:20;;;;;;;4.68;1.70;;;22.80;32.80;;;;;;5059790;28;20437;-65
2022/12/12 13:28:53;;;;;;;5.82;1.58;;;22.80;32.80;;;;;;5064315;28;20052;-63
2022/12/12 13:31:41;;;;;;;1.80;1.70;;;22.80;32.60;;;;;;5061382;28;20060;-63
2022/12/12 13:34:19;;;;;;;3.55;2.05;;;22.90;32.30;;;;;;5060571;28;20468;-64
2022/12/12 13:36:49;;;;;;;2.00;1.80;;;22.90;32.10;;;;;;5064254;28;20504;-63
2022/12/12 13:39:33;;;;;;;3.25;1.88;;;22.90;32.00;;;;;;5060151;28;20096;-64
2022/12/12 13:42:08;;;;;;;1.77;1.67;;;22.90;31.80;;;;;;5063177;28;20413;-64
2022/12/12 13:44:46;;;;;;;2.47;1.90;;;22.90;31.70;;;;;;5059337;28;20133;-64
2022/12/12 13:47:54;;;;;;;2.10;1.52;;;22.90;31.60;;;;;;5060851;28;20052;-61
2022/12/12 13:50:22;;;;;;;1.63;1.52;;;22.90;31.60;;;;;;5029576;28;20144;-62
2022/12/12 13:53:16;;;;;;;2.17;1.95;;;22.90;31.50;;;;;;5058847;28;20097;-62